sensor_id;sensor_type;location;lat;lon;timestamp;pressure;altitude;pressure_sealevel;temperature;humidity
16255;BME280;8235;52.198;9.904;2024-01-27T00:00:12;102291.31;;;4.92;81.84
16255;BME280;8235;52.198;9.904;2024-01-27T00:02:39;102284.31;;;4.86;82.28
16255;BME280;8235;52.198;9.904;2024-01-27T00:05:07;102289.69;;;4.83;82.64
16255;BME280;8235;52.198;9.904;2024-01-27T00:07:34;102284.44;;;4.80;82.83
16255;BME280;8235;52.198;9.904;2024-01-27T00:10:01;102289.72;;;4.78;83.51
16255;BME280;8235;52.198;9.904;2024-01-27T00:12:28;102299.38;;;4.81;83.70
16255;BME280;8235;52.198;9.904;2024-01-27T00:14:53;102302.88;;;4.81;83.95
16255;BME280;8235;52.198;9.904;2024-01-27T00:17:20;102317.00;;;4.77;84.12
16255;BME280;8235;52.198;9.904;2024-01-27T00:19:49;102303.84;;;4.76;84.46
16255;BME280;8235;52.198;9.904;2024-01-27T00:22:17;102305.63;;;4.74;84.70
16255;BME280;8235;52.198;9.904;2024-01-27T00:24:43;102314.38;;;4.76;84.68
16255;BME280;8235;52.198;9.904;2024-01-27T00:27:10;102325.84;;;4.75;85.43
16255;BME280;8235;52.198;9.904;2024-01-27T00:29:37;102315.25;;;4.76;85.38
16255;BME280;8235;52.198;9.904;2024-01-27T00:32:03;102310.91;;;4.74;85.27
16255;BME280;8235;52.198;9.904;2024-01-27T00:34:30;102317.06;;;4.74;85.08
16255;BME280;8235;52.198;9.904;2024-01-27T00:36:56;102317.06;;;4.74;85.49
16255;BME280;8235;52.198;9.904;2024-01-27T00:39:24;102321.44;;;4.75;85.31
16255;BME280;8235;52.198;9.904;2024-01-27T00:41:51;102320.56;;;4.75;85.52
16255;BME280;8235;52.198;9.904;2024-01-27T00:44:18;102323.19;;;4.76;85.35
16255;BME280;8235;52.198;9.904;2024-01-27T00:46:44;102309.13;;;4.74;85.73
16255;BME280;8235;52.198;9.904;2024-01-27T00:49:11;102320.59;;;4.73;86.20
16255;BME280;8235;52.198;9.904;2024-01-27T00:51:37;102333.75;;;4.75;86.50
16255;BME280;8235;52.198;9.904;2024-01-27T00:54:05;102332.00;;;4.74;86.78
16255;BME280;8235;52.198;9.904;2024-01-27T00:56:32;102335.53;;;4.73;87.20
16255;BME280;8235;52.198;9.904;2024-01-27T00:58:59;102328.50;;;4.73;87.13
16255;BME280;8235;52.198;9.904;2024-01-27T01:01:26;102326.72;;;4.74;87.77
16255;BME280;8235;52.198;9.904;2024-01-27T01:03:53;102330.25;;;4.74;87.82
16255;BME280;8235;52.198;9.904;2024-01-27T01:06:19;102336.38;;;4.76;88.04
16255;BME280;8235;52.198;9.904;2024-01-27T01:08:46;102334.63;;;4.75;88.40
16255;BME280;8235;52.198;9.904;2024-01-27T01:11:13;102337.25;;;4.78;88.64
16255;BME280;8235;52.198;9.904;2024-01-27T01:13:41;102339.88;;;4.78;88.70
16255;BME280;8235;52.198;9.904;2024-01-27T01:16:08;102349.56;;;4.76;88.87
16255;BME280;8235;52.198;9.904;2024-01-27T01:18:34;102330.22;;;4.77;89.20
16255;BME280;8235;52.198;9.904;2024-01-27T01:21:01;102333.75;;;4.75;89.31
16255;BME280;8235;52.198;9.904;2024-01-27T01:23:27;102332.84;;;4.77;89.61
16255;BME280;8235;52.198;9.904;2024-01-27T01:25:54;102331.06;;;4.81;89.70
16255;BME280;8235;52.198;9.904;2024-01-27T01:28:20;102332.84;;;4.79;89.64
16255;BME280;8235;52.198;9.904;2024-01-27T01:30:48;102339.91;;;4.75;90.02
16255;BME280;8235;52.198;9.904;2024-01-27T01:33:15;102332.88;;;4.74;89.79
16255;BME280;8235;52.198;9.904;2024-01-27T01:35:42;102348.78;;;4.70;90.03
16255;BME280;8235;52.198;9.904;2024-01-27T01:38:08;102358.44;;;4.71;90.16
16255;BME280;8235;52.198;9.904;2024-01-27T01:40:35;102350.53;;;4.71;90.86
16255;BME280;8235;52.198;9.904;2024-01-27T01:43:01;102343.53;;;4.67;90.83
16255;BME280;8235;52.198;9.904;2024-01-27T01:45:29;102347.91;;;4.68;91.07
16255;BME280;8235;52.198;9.904;2024-01-27T01:47:57;102341.84;;;4.63;90.96
16255;BME280;8235;52.198;9.904;2024-01-27T01:50:23;102351.53;;;4.61;91.19
16255;BME280;8235;52.198;9.904;2024-01-27T01:52:51;102351.56;;;4.58;90.92
16255;BME280;8235;52.198;9.904;2024-01-27T01:55:19;102343.69;;;4.53;91.01
16255;BME280;8235;52.198;9.904;2024-01-27T01:57:46;102343.69;;;4.51;91.61
16255;BME280;8235;52.198;9.904;2024-01-27T02:00:14;102356.03;;;4.51;91.17
16255;BME280;8235;52.198;9.904;2024-01-27T02:02:43;102345.50;;;4.48;91.08
16255;BME280;8235;52.198;9.904;2024-01-27T02:05:11;102347.34;;;4.43;91.20
16255;BME280;8235;52.198;9.904;2024-01-27T02:07:38;102349.13;;;4.41;91.24
16255;BME280;8235;52.198;9.904;2024-01-27T02:10:06;102350.88;;;4.42;91.53
16255;BME280;8235;52.198;9.904;2024-01-27T02:12:38;102344.72;;;4.41;91.74
16255;BME280;8235;52.198;9.904;2024-01-27T02:15:05;102352.63;;;4.40;91.52
16255;BME280;8235;52.198;9.904;2024-01-27T02:17:35;102343.88;;;4.38;91.17
16255;BME280;8235;52.198;9.904;2024-01-27T02:20:02;102347.41;;;4.34;91.96
16255;BME280;8235;52.198;9.904;2024-01-27T02:22:30;102344.84;;;4.29;92.10
16255;BME280;8235;52.198;9.904;2024-01-27T02:24:58;102360.72;;;4.25;92.27
16255;BME280;8235;52.198;9.904;2024-01-27T02:27:24;102366.88;;;4.22;92.76
16255;BME280;8235;52.198;9.904;2024-01-27T02:29:51;102372.19;;;4.21;93.25
16255;BME280;8235;52.198;9.904;2024-01-27T02:32:17;102379.22;;;4.18;93.33
16255;BME280;8235;52.198;9.904;2024-01-27T02:34:44;102378.38;;;4.16;93.17
16255;BME280;8235;52.198;9.904;2024-01-27T02:37:10;102379.25;;;4.14;93.31
16255;BME280;8235;52.198;9.904;2024-01-27T02:39:37;102378.38;;;4.13;93.50
16255;BME280;8235;52.198;9.904;2024-01-27T02:42:06;102368.78;;;4.09;94.35
16255;BME280;8235;52.198;9.904;2024-01-27T02:44:33;102363.53;;;4.08;94.56
16255;BME280;8235;52.198;9.904;2024-01-27T02:46:59;102373.19;;;4.06;94.25
16255;BME280;8235;52.198;9.904;2024-01-27T02:49:26;102377.63;;;4.02;94.71
16255;BME280;8235;52.198;9.904;2024-01-27T02:51:52;102375.88;;;4.00;95.05
16255;BME280;8235;52.198;9.904;2024-01-27T02:54:19;102378.53;;;3.95;94.98
16255;BME280;8235;52.198;9.904;2024-01-27T02:56:45;102374.22;;;3.88;95.14
16255;BME280;8235;52.198;9.904;2024-01-27T02:59:13;102375.09;;;3.89;95.62
16255;BME280;8235;52.198;9.904;2024-01-27T03:01:40;102378.63;;;3.86;95.96
16255;BME280;8235;52.198;9.904;2024-01-27T03:04:06;102383.03;;;3.87;96.04
16255;BME280;8235;52.198;9.904;2024-01-27T03:06:33;102392.72;;;3.82;96.26
16255;BME280;8235;52.198;9.904;2024-01-27T03:08:59;102390.97;;;3.81;96.51
16255;BME280;8235;52.198;9.904;2024-01-27T03:11:26;102409.44;;;3.78;96.43
16255;BME280;8235;52.198;9.904;2024-01-27T03:13:52;102413.03;;;3.71;96.87
16255;BME280;8235;52.198;9.904;2024-01-27T03:16:20;102407.75;;;3.71;97.37
16255;BME280;8235;52.198;9.904;2024-01-27T03:18:46;102413.91;;;3.68;97.36
16255;BME280;8235;52.198;9.904;2024-01-27T03:21:13;102415.69;;;3.65;97.22
16255;BME280;8235;52.198;9.904;2024-01-27T03:23:40;102412.19;;;3.64;97.76
16255;BME280;8235;52.198;9.904;2024-01-27T03:26:06;102423.59;;;3.65;97.83
16255;BME280;8235;52.198;9.904;2024-01-27T03:28:32;102423.59;;;3.62;97.96
16255;BME280;8235;52.198;9.904;2024-01-27T03:30:59;102428.88;;;3.60;97.74
16255;BME280;8235;52.198;9.904;2024-01-27T03:33:27;102427.13;;;3.59;97.76
16255;BME280;8235;52.198;9.904;2024-01-27T03:35:56;102421.03;;;3.57;98.31
16255;BME280;8235;52.198;9.904;2024-01-27T03:38:22;102423.66;;;3.56;98.01
16255;BME280;8235;52.198;9.904;2024-01-27T03:40:49;102421.03;;;3.54;98.19
16255;BME280;8235;52.198;9.904;2024-01-27T03:43:15;102419.28;;;3.50;98.89
16255;BME280;8235;52.198;9.904;2024-01-27T03:45:42;102420.19;;;3.49;98.25
16255;BME280;8235;52.198;9.904;2024-01-27T03:48:08;102423.69;;;3.48;99.01
16255;BME280;8235;52.198;9.904;2024-01-27T03:50:36;102439.50;;;3.46;98.42
16255;BME280;8235;52.198;9.904;2024-01-27T03:53:03;102440.38;;;3.45;99.23
16255;BME280;8235;52.198;9.904;2024-01-27T03:55:29;102457.97;;;3.42;98.81
16255;BME280;8235;52.198;9.904;2024-01-27T03:57:56;102450.94;;;3.41;99.14
16255;BME280;8235;52.198;9.904;2024-01-27T04:00:23;102450.97;;;3.39;99.41
16255;BME280;8235;52.198;9.904;2024-01-27T04:02:49;102452.75;;;3.36;99.24
16255;BME280;8235;52.198;9.904;2024-01-27T04:05:16;102456.25;;;3.35;99.29
16255;BME280;8235;52.198;9.904;2024-01-27T04:07:43;102455.38;;;3.34;100.00
16255;BME280;8235;52.198;9.904;2024-01-27T04:10:10;102444.84;;;3.31;99.64
16255;BME280;8235;52.198;9.904;2024-01-27T04:12:37;102451.00;;;3.29;99.66
16255;BME280;8235;52.198;9.904;2024-01-27T04:15:04;102460.69;;;3.25;100.00
16255;BME280;8235;52.198;9.904;2024-01-27T04:17:30;102456.28;;;3.24;99.64
16255;BME280;8235;52.198;9.904;2024-01-27T04:19:57;102461.56;;;3.26;100.00
16255;BME280;8235;52.198;9.904;2024-01-27T04:22:23;102466.81;;;3.23;100.00
16255;BME280;8235;52.198;9.904;2024-01-27T04:24:51;102458.09;;;3.22;100.00
16255;BME280;8235;52.198;9.904;2024-01-27T04:27:17;102452.81;;;3.19;100.00
16255;BME280;8235;52.198;9.904;2024-01-27T04:29:44;102461.59;;;3.15;100.00
16255;BME280;8235;52.198;9.904;2024-01-27T04:32:11;102473.03;;;3.12;100.00
16255;BME280;8235;52.198;9.904;2024-01-27T04:34:38;102474.78;;;3.10;100.00
16255;BME280;8235;52.198;9.904;2024-01-27T04:37:05;102471.28;;;3.10;100.00
16255;BME280;8235;52.198;9.904;2024-01-27T04:39:31;102467.75;;;3.08;100.00
16255;BME280;8235;52.198;9.904;2024-01-27T04:41:59;102466.88;;;3.07;100.00
16255;BME280;8235;52.198;9.904;2024-01-27T04:44:26;102468.63;;;3.07;100.00
16255;BME280;8235;52.198;9.904;2024-01-27T04:46:53;102471.31;;;3.02;100.00
16255;BME280;8235;52.198;9.904;2024-01-27T04:49:19;102473.06;;;3.02;100.00
16255;BME280;8235;52.198;9.904;2024-01-27T04:51:47;102470.44;;;2.99;100.00
16255;BME280;8235;52.198;9.904;2024-01-27T04:54:13;102469.56;;;2.97;100.00
16255;BME280;8235;52.198;9.904;2024-01-27T04:56:40;102480.09;;;2.92;100.00
16255;BME280;8235;52.198;9.904;2024-01-27T04:59:07;102487.13;;;2.93;100.00
16255;BME280;8235;52.198;9.904;2024-01-27T05:01:34;102495.00;;;2.96;100.00
16255;BME280;8235;52.198;9.904;2024-01-27T05:04:00;102501.16;;;2.94;100.00
16255;BME280;8235;52.198;9.904;2024-01-27T05:06:27;102495.88;;;2.88;100.00
16255;BME280;8235;52.198;9.904;2024-01-27T05:08:53;102507.28;;;2.90;100.00
16255;BME280;8235;52.198;9.904;2024-01-27T05:11:25;102509.94;;;2.91;100.00
16255;BME280;8235;52.198;9.904;2024-01-27T05:13:51;102514.31;;;2.88;100.00
16255;BME280;8235;52.198;9.904;2024-01-27T05:16:19;102516.09;;;2.86;100.00
16255;BME280;8235;52.198;9.904;2024-01-27T05:18:46;102515.22;;;2.84;100.00
16255;BME280;8235;52.198;9.904;2024-01-27T05:21:13;102514.34;;;2.83;100.00
16255;BME280;8235;52.198;9.904;2024-01-27T05:23:40;102514.34;;;2.78;100.00
16255;BME280;8235;52.198;9.904;2024-01-27T05:26:06;102519.59;;;2.80;100.00
16255;BME280;8235;52.198;9.904;2024-01-27T05:28:33;102523.13;;;2.81;100.00
16255;BME280;8235;52.198;9.904;2024-01-27T05:30:59;102527.50;;;2.80;100.00
16255;BME280;8235;52.198;9.904;2024-01-27T05:33:27;102525.75;;;2.77;100.00
16255;BME280;8235;52.198;9.904;2024-01-27T05:35:54;102533.63;;;2.76;100.00
16255;BME280;8235;52.198;9.904;2024-01-27T05:38:20;102530.13;;;2.75;100.00
16255;BME280;8235;52.198;9.904;2024-01-27T05:40:47;102530.13;;;2.72;100.00
16255;BME280;8235;52.198;9.904;2024-01-27T05:43:15;102529.25;;;2.73;100.00
16255;BME280;8235;52.198;9.904;2024-01-27T05:45:41;102527.50;;;2.71;100.00
16255;BME280;8235;52.198;9.904;2024-01-27T05:48:08;102531.00;;;2.70;100.00
16255;BME280;8235;52.198;9.904;2024-01-27T05:50:35;102531.00;;;2.71;100.00
16255;BME280;8235;52.198;9.904;2024-01-27T05:53:02;102535.38;;;2.71;100.00
16255;BME280;8235;52.198;9.904;2024-01-27T05:55:29;102535.41;;;2.68;100.00
16255;BME280;8235;52.198;9.904;2024-01-27T05:57:55;102530.13;;;2.69;100.00
16255;BME280;8235;52.198;9.904;2024-01-27T06:00:22;102545.03;;;2.69;100.00
16255;BME280;8235;52.198;9.904;2024-01-27T06:02:49;102538.94;;;2.68;100.00
16255;BME280;8235;52.198;9.904;2024-01-27T06:05:15;102538.91;;;2.65;100.00
16255;BME280;8235;52.198;9.904;2024-01-27T06:07:43;102547.69;;;2.66;100.00
16255;BME280;8235;52.198;9.904;2024-01-27T06:10:11;102546.81;;;2.64;100.00
16255;BME280;8235;52.198;9.904;2024-01-27T06:12:38;102546.81;;;2.62;100.00
16255;BME280;8235;52.198;9.904;2024-01-27T06:15:05;102550.31;;;2.60;100.00
16255;BME280;8235;52.198;9.904;2024-01-27T06:17:34;102551.19;;;2.60;100.00
16255;BME280;8235;52.198;9.904;2024-01-27T06:20:00;102550.31;;;2.57;100.00
16255;BME280;8235;52.198;9.904;2024-01-27T06:22:27;102555.56;;;2.58;100.00
16255;BME280;8235;52.198;9.904;2024-01-27T06:24:54;102555.56;;;2.57;100.00
16255;BME280;8235;52.198;9.904;2024-01-27T06:27:21;102561.72;;;2.59;100.00
16255;BME280;8235;52.198;9.904;2024-01-27T06:29:47;102562.59;;;2.59;100.00
16255;BME280;8235;52.198;9.904;2024-01-27T06:32:14;102566.97;;;2.60;100.00
16255;BME280;8235;52.198;9.904;2024-01-27T06:34:40;102561.72;;;2.60;100.00
16255;BME280;8235;52.198;9.904;2024-01-27T06:37:07;102561.72;;;2.60;100.00
16255;BME280;8235;52.198;9.904;2024-01-27T06:39:33;102564.34;;;2.60;100.00
16255;BME280;8235;52.198;9.904;2024-01-27T06:42:01;102558.19;;;2.58;100.00
16255;BME280;8235;52.198;9.904;2024-01-27T06:44:28;102551.19;;;2.62;100.00
16255;BME280;8235;52.198;9.904;2024-01-27T06:46:54;102559.97;;;2.61;100.00
16255;BME280;8235;52.198;9.904;2024-01-27T06:49:21;102566.09;;;2.66;100.00
16255;BME280;8235;52.198;9.904;2024-01-27T06:51:47;102574.88;;;2.65;100.00
16255;BME280;8235;52.198;9.904;2024-01-27T06:54:14;102589.78;;;2.66;100.00
16255;BME280;8235;52.198;9.904;2024-01-27T06:56:40;102589.78;;;2.66;100.00
16255;BME280;8235;52.198;9.904;2024-01-27T06:59:08;102590.66;;;2.66;100.00
16255;BME280;8235;52.198;9.904;2024-01-27T07:01:34;102595.91;;;2.66;100.00
16255;BME280;8235;52.198;9.904;2024-01-27T07:04:01;102600.31;;;2.63;100.00
16255;BME280;8235;52.198;9.904;2024-01-27T07:06:27;102601.19;;;2.62;100.00
16255;BME280;8235;52.198;9.904;2024-01-27T07:08:54;102604.69;;;2.64;100.00
16255;BME280;8235;52.198;9.904;2024-01-27T07:11:21;102600.31;;;2.63;100.00
16255;BME280;8235;52.198;9.904;2024-01-27T07:13:47;102588.00;;;2.60;100.00
16255;BME280;8235;52.198;9.904;2024-01-27T07:16:15;102591.53;;;2.59;100.00
16255;BME280;8235;52.198;9.904;2024-01-27T07:18:42;102599.41;;;2.59;100.00
16255;BME280;8235;52.198;9.904;2024-01-27T07:21:08;102595.91;;;2.56;100.00
16255;BME280;8235;52.198;9.904;2024-01-27T07:23:35;102607.28;;;2.55;100.00
16255;BME280;8235;52.198;9.904;2024-01-27T07:26:01;102608.16;;;2.55;100.00
16255;BME280;8235;52.198;9.904;2024-01-27T07:28:29;102614.31;;;2.54;100.00
16255;BME280;8235;52.198;9.904;2024-01-27T07:30:55;102609.03;;;2.56;100.00
16255;BME280;8235;52.198;9.904;2024-01-27T07:33:23;102609.94;;;2.59;100.00
16255;BME280;8235;52.198;9.904;2024-01-27T07:35:50;102615.19;;;2.58;100.00
16255;BME280;8235;52.198;9.904;2024-01-27T07:38:17;102615.19;;;2.56;100.00
16255;BME280;8235;52.198;9.904;2024-01-27T07:40:43;102619.56;;;2.56;100.00
16255;BME280;8235;52.198;9.904;2024-01-27T07:43:10;102615.19;;;2.59;100.00
16255;BME280;8235;52.198;9.904;2024-01-27T07:45:36;102624.84;;;2.56;100.00
16255;BME280;8235;52.198;9.904;2024-01-27T07:48:03;102627.47;;;2.57;100.00
16255;BME280;8235;52.198;9.904;2024-01-27T07:50:31;102638.88;;;2.61;100.00
16255;BME280;8235;52.198;9.904;2024-01-27T07:52:58;102641.50;;;2.62;100.00
16255;BME280;8235;52.198;9.904;2024-01-27T07:55:25;102638.00;;;2.60;100.00
16255;BME280;8235;52.198;9.904;2024-01-27T07:57:51;102638.00;;;2.65;100.00
16255;BME280;8235;52.198;9.904;2024-01-27T08:00:18;102634.50;;;2.64;100.00
16255;BME280;8235;52.198;9.904;2024-01-27T08:02:45;102644.13;;;2.62;100.00
16255;BME280;8235;52.198;9.904;2024-01-27T08:05:12;102640.63;;;2.60;100.00
16255;BME280;8235;52.198;9.904;2024-01-27T08:07:39;102648.50;;;2.60;100.00
16255;BME280;8235;52.198;9.904;2024-01-27T08:10:06;102648.53;;;2.62;100.00
16255;BME280;8235;52.198;9.904;2024-01-27T08:12:36;102651.16;;;2.60;100.00
16255;BME280;8235;52.198;9.904;2024-01-27T08:15:03;102650.28;;;2.67;100.00
16255;BME280;8235;52.198;9.904;2024-01-27T08:17:30;102653.78;;;2.66;100.00
16255;BME280;8235;52.198;9.904;2024-01-27T08:19:56;102658.16;;;2.69;100.00
16255;BME280;8235;52.198;9.904;2024-01-27T08:22:23;102656.41;;;2.71;100.00
16255;BME280;8235;52.198;9.904;2024-01-27T08:24:51;102653.78;;;2.72;100.00
16255;BME280;8235;52.198;9.904;2024-01-27T08:27:17;102650.28;;;2.76;100.00
16255;BME280;8235;52.198;9.904;2024-01-27T08:29:43;102662.56;;;2.77;100.00
16255;BME280;8235;52.198;9.904;2024-01-27T08:32:10;102654.69;;;2.79;100.00
16255;BME280;8235;52.198;9.904;2024-01-27T08:34:37;102656.44;;;2.83;100.00
16255;BME280;8235;52.198;9.904;2024-01-27T08:37:14;102652.03;;;2.88;100.00
16255;BME280;8235;52.198;9.904;2024-01-27T08:39:40;102648.53;;;2.94;100.00
16255;BME280;8235;52.198;9.904;2024-01-27T08:42:08;102652.94;;;2.96;100.00
16255;BME280;8235;52.198;9.904;2024-01-27T08:44:35;102657.31;;;3.02;100.00
16255;BME280;8235;52.198;9.904;2024-01-27T08:47:01;102662.56;;;3.08;100.00
16255;BME280;8235;52.198;9.904;2024-01-27T08:49:28;102658.19;;;3.13;100.00
16255;BME280;8235;52.198;9.904;2024-01-27T08:51:54;102663.47;;;3.19;100.00
16255;BME280;8235;52.198;9.904;2024-01-27T08:54:21;102660.81;;;3.22;100.00
16255;BME280;8235;52.198;9.904;2024-01-27T08:56:47;102667.81;;;3.31;100.00
16255;BME280;8235;52.198;9.904;2024-01-27T08:59:15;102668.69;;;3.36;100.00
16255;BME280;8235;52.198;9.904;2024-01-27T09:01:42;102676.56;;;3.40;98.98
16255;BME280;8235;52.198;9.904;2024-01-27T09:04:08;102673.06;;;3.44;98.72
16255;BME280;8235;52.198;9.904;2024-01-27T09:06:35;102680.97;;;3.47;98.94
16255;BME280;8235;52.198;9.904;2024-01-27T09:09:02;102687.13;;;3.53;98.15
16255;BME280;8235;52.198;9.904;2024-01-27T09:11:28;102680.97;;;3.58;97.64
16255;BME280;8235;52.198;9.904;2024-01-27T09:13:57;102681.81;;;3.65;97.92
16255;BME280;8235;52.198;9.904;2024-01-27T09:16:25;102687.94;;;3.70;96.88
16255;BME280;8235;52.198;9.904;2024-01-27T09:18:51;102683.56;;;3.75;97.43
16255;BME280;8235;52.198;9.904;2024-01-27T09:21:19;102694.06;;;3.86;96.70
16255;BME280;8235;52.198;9.904;2024-01-27T09:23:53;102698.44;;;3.88;96.88
16255;BME280;8235;52.198;9.904;2024-01-27T09:26:19;102706.31;;;3.94;96.03
16255;BME280;8235;52.198;9.904;2024-01-27T09:28:45;102709.81;;;4.02;95.41
16255;BME280;8235;52.198;9.904;2024-01-27T09:31:19;102699.25;;;4.04;95.04
16255;BME280;8235;52.198;9.904;2024-01-27T09:33:48;102697.50;;;4.10;94.46
16255;BME280;8235;52.198;9.904;2024-01-27T09:36:15;102688.66;;;4.14;94.15
16255;BME280;8235;52.198;9.904;2024-01-27T09:38:42;102688.66;;;4.21;94.14
16255;BME280;8235;52.198;9.904;2024-01-27T09:41:09;102695.66;;;4.29;94.31
16255;BME280;8235;52.198;9.904;2024-01-27T09:43:37;102699.13;;;4.34;93.37
16255;BME280;8235;52.198;9.904;2024-01-27T09:46:03;102694.72;;;4.36;92.80
16255;BME280;8235;52.198;9.904;2024-01-27T09:48:30;102699.09;;;4.39;92.75
16255;BME280;8235;52.198;9.904;2024-01-27T09:51:00;102706.13;;;4.46;92.97
16255;BME280;8235;52.198;9.904;2024-01-27T09:53:27;102716.59;;;4.55;91.67
16255;BME280;8235;52.198;9.904;2024-01-27T09:55:55;102713.97;;;4.53;91.56
16255;BME280;8235;52.198;9.904;2024-01-27T09:58:24;102713.94;;;4.60;91.53
16255;BME280;8235;52.198;9.904;2024-01-27T10:00:54;102708.66;;;4.66;91.52
16255;BME280;8235;52.198;9.904;2024-01-27T10:03:22;102712.97;;;4.73;91.74
16255;BME280;8235;52.198;9.904;2024-01-27T10:05:50;102715.59;;;4.80;90.97
16255;BME280;8235;52.198;9.904;2024-01-27T10:08:20;102721.69;;;4.85;90.85
16255;BME280;8235;52.198;9.904;2024-01-27T10:10:46;102710.25;;;4.85;89.84
16255;BME280;8235;52.198;9.904;2024-01-27T10:13:14;102718.16;;;4.86;90.12
16255;BME280;8235;52.198;9.904;2024-01-27T10:15:42;102719.03;;;4.90;89.71
16255;BME280;8235;52.198;9.904;2024-01-27T10:18:09;102709.34;;;4.91;89.23
16255;BME280;8235;52.198;9.904;2024-01-27T10:20:41;102724.28;;;4.98;89.91
16255;BME280;8235;52.198;9.904;2024-01-27T10:23:13;102722.44;;;5.04;89.49
16255;BME280;8235;52.198;9.904;2024-01-27T10:25:41;102718.91;;;5.07;89.15
16255;BME280;8235;52.198;9.904;2024-01-27T10:28:07;102725.06;;;5.09;89.28
16255;BME280;8235;52.198;9.904;2024-01-27T10:30:34;102717.97;;;5.14;89.21
16255;BME280;8235;52.198;9.904;2024-01-27T10:33:01;102734.69;;;5.16;88.93
16255;BME280;8235;52.198;9.904;2024-01-27T10:35:28;102730.31;;;5.12;88.48
16255;BME280;8235;52.198;9.904;2024-01-27T10:37:55;102736.47;;;5.12;88.92
16255;BME280;8235;52.198;9.904;2024-01-27T10:40:22;102740.00;;;5.13;89.16
16255;BME280;8235;52.198;9.904;2024-01-27T10:43:02;102726.78;;;5.13;89.37
16255;BME280;8235;52.198;9.904;2024-01-27T10:45:34;102724.13;;;5.14;89.70
16255;BME280;8235;52.198;9.904;2024-01-27T10:48:02;102725.88;;;5.17;89.38
16255;BME280;8235;52.198;9.904;2024-01-27T10:50:29;102719.72;;;5.18;89.72
16255;BME280;8235;52.198;9.904;2024-01-27T10:52:57;102724.06;;;5.20;89.49
16255;BME280;8235;52.198;9.904;2024-01-27T10:55:24;102714.38;;;5.22;89.48
16255;BME280;8235;52.198;9.904;2024-01-27T10:57:52;102731.97;;;5.22;89.29
16255;BME280;8235;52.198;9.904;2024-01-27T11:00:21;102730.22;;;5.24;89.49
16255;BME280;8235;52.198;9.904;2024-01-27T11:02:49;102721.41;;;5.25;89.30
16255;BME280;8235;52.198;9.904;2024-01-27T11:05:19;102720.53;;;5.23;89.60
16255;BME280;8235;52.198;9.904;2024-01-27T11:07:46;102709.91;;;5.29;89.70
16255;BME280;8235;52.198;9.904;2024-01-27T11:10:14;102703.75;;;5.30;89.57
16255;BME280;8235;52.198;9.904;2024-01-27T11:12:41;102698.44;;;5.33;89.92
16255;BME280;8235;52.198;9.904;2024-01-27T11:15:09;102699.28;;;5.37;89.97
16255;BME280;8235;52.198;9.904;2024-01-27T11:17:39;102694.84;;;5.39;89.79
16255;BME280;8235;52.198;9.904;2024-01-27T11:20:07;102693.94;;;5.41;89.32
16255;BME280;8235;52.198;9.904;2024-01-27T11:22:34;102688.63;;;5.46;89.56
16255;BME280;8235;52.198;9.904;2024-01-27T11:25:07;102686.81;;;5.51;89.42
16255;BME280;8235;52.198;9.904;2024-01-27T11:27:34;102676.25;;;5.51;89.97
16255;BME280;8235;52.198;9.904;2024-01-27T11:30:01;102689.47;;;5.51;89.29
16255;BME280;8235;52.198;9.904;2024-01-27T11:32:30;102685.91;;;5.53;89.19
16255;BME280;8235;52.198;9.904;2024-01-27T11:34:56;102692.13;;;5.49;89.56
16255;BME280;8235;52.198;9.904;2024-01-27T11:37:23;102698.28;;;5.48;89.88
16255;BME280;8235;52.198;9.904;2024-01-27T11:39:50;102689.47;;;5.49;89.99
16255;BME280;8235;52.198;9.904;2024-01-27T11:42:17;102692.03;;;5.55;89.94
16255;BME280;8235;52.198;9.904;2024-01-27T11:44:43;102692.00;;;5.58;90.32
16255;BME280;8235;52.198;9.904;2024-01-27T11:47:25;102702.56;;;5.62;89.81
16255;BME280;8235;52.198;9.904;2024-01-27T11:50:08;102702.50;;;5.68;87.27
16255;BME280;8235;52.198;9.904;2024-01-27T11:52:35;102698.97;;;5.70;86.44
16255;BME280;8235;52.198;9.904;2024-01-27T11:55:01;102708.56;;;5.76;85.73
16255;BME280;8235;52.198;9.904;2024-01-27T11:57:28;102712.09;;;5.78;85.40
16255;BME280;8235;52.198;9.904;2024-01-27T11:59:56;102712.94;;;5.81;84.78
16255;BME280;8235;52.198;9.904;2024-01-27T12:02:23;102709.38;;;5.84;84.71
16255;BME280;8235;52.198;9.904;2024-01-27T12:04:49;102705.81;;;5.91;84.58
16255;BME280;8235;52.198;9.904;2024-01-27T12:07:18;102712.81;;;5.93;83.89
16255;BME280;8235;52.198;9.904;2024-01-27T12:09:45;102714.53;;;5.98;83.81
16255;BME280;8235;52.198;9.904;2024-01-27T12:12:12;102701.34;;;5.96;83.05
16255;BME280;8235;52.198;9.904;2024-01-27T12:14:40;102713.66;;;5.97;81.36
16255;BME280;8235;52.198;9.904;2024-01-27T12:17:08;102713.63;;;6.00;82.22
16255;BME280;8235;52.198;9.904;2024-01-27T12:19:35;102705.69;;;6.02;81.93
16255;BME280;8235;52.198;9.904;2024-01-27T12:22:01;102713.59;;;6.03;82.05
16255;BME280;8235;52.198;9.904;2024-01-27T12:24:29;102707.38;;;6.09;82.32
16255;BME280;8235;52.198;9.904;2024-01-27T12:26:56;102707.28;;;6.15;81.29
16255;BME280;8235;52.198;9.904;2024-01-27T12:29:23;102717.81;;;6.19;81.68
16255;BME280;8235;52.198;9.904;2024-01-27T12:31:49;102705.47;;;6.20;81.09
16255;BME280;8235;52.198;9.904;2024-01-27T12:34:17;102709.00;;;6.19;80.60
16255;BME280;8235;52.198;9.904;2024-01-27T12:36:44;102698.38;;;6.23;80.38
16255;BME280;8235;52.198;9.904;2024-01-27T12:39:11;102707.19;;;6.24;80.22
16255;BME280;8235;52.198;9.904;2024-01-27T12:41:39;102701.00;;;6.25;80.01
16255;BME280;8235;52.198;9.904;2024-01-27T12:44:06;102693.06;;;6.25;80.34
16255;BME280;8235;52.198;9.904;2024-01-27T12:46:32;102708.00;;;6.27;79.05
16255;BME280;8235;52.198;9.904;2024-01-27T12:48:59;102705.28;;;6.32;79.40
16255;BME280;8235;52.198;9.904;2024-01-27T12:51:25;102704.41;;;6.33;79.22
16255;BME280;8235;52.198;9.904;2024-01-27T12:53:52;102709.59;;;6.41;79.11
16255;BME280;8235;52.198;9.904;2024-01-27T12:56:18;102720.19;;;6.41;78.77
16255;BME280;8235;52.198;9.904;2024-01-27T12:58:46;102725.47;;;6.44;79.02
16255;BME280;8235;52.198;9.904;2024-01-27T13:01:13;102732.53;;;6.42;79.09
16255;BME280;8235;52.198;9.904;2024-01-27T13:03:39;102722.75;;;6.45;79.80
16255;BME280;8235;52.198;9.904;2024-01-27T13:06:06;102711.25;;;6.48;79.28